Time;durP1;ratioP1;P1;durP2;ratioP2;P2;SDS_P1;SDS_P2;PMS_P1;PMS_P2;Temp;Humidity;BMP_temperature;BMP_pressure;BME280_temperature;BME280_humidity;BME280_pressure;Samples;Min_cycle;Max_cycle;Signal;HPM_P1;HPM_P2
2024/03/06 00:01:22;;;;;;;4.80;2.17;;;2.50;99.90;;;3.28;100.00;98199.78;4990042;28;20466;-76
2024/03/06 00:03:52;;;;;;;3.88;2.47;;;2.60;99.90;;;3.19;100.00;98199.78;4989135;28;20474;-76
2024/03/06 00:06:21;;;;;;;2.85;2.25;;;2.40;99.90;;;3.13;100.00;98200.31;4991377;28;20633;-76
2024/03/06 00:08:49;;;;;;;3.63;2.57;;;2.40;99.90;;;3.22;100.00;98212.44;4989681;28;20719;-76
2024/03/06 00:11:17;;;;;;;3.03;1.97;;;2.50;99.90;;;3.18;100.00;98205.91;4988836;28;20468;-76
2024/03/06 00:13:47;;;;;;;3.00;2.27;;;2.40;99.90;;;3.18;100.00;98216.22;4986649;28;20469;-76
2024/03/06 00:16:18;;;;;;;2.73;1.73;;;2.40;99.90;;;3.14;100.00;98215.69;4984888;28;20496;-75
2024/03/06 00:18:47;;;;;;;5.10;2.30;;;2.40;99.90;;;3.12;100.00;98219.38;4986251;28;20463;-76
2024/03/06 00:21:17;;;;;;;4.03;2.13;;;2.40;99.90;;;3.10;100.00;98222.06;4986933;28;21330;-76
2024/03/06 00:23:46;;;;;;;3.23;2.53;;;2.40;99.90;;;3.06;100.00;98228.44;4988985;28;20517;-75
2024/03/06 00:26:15;;;;;;;3.40;2.20;;;2.40;99.90;;;3.06;100.00;98238.78;4986013;28;20484;-76
2024/03/06 00:28:43;;;;;;;6.37;3.20;;;2.30;99.90;;;3.15;100.00;98234.59;4987203;28;20472;-76
2024/03/06 00:31:12;;;;;;;8.47;2.80;;;2.40;99.90;;;3.06;100.00;98236.19;4987575;28;20535;-75
2024/03/06 00:33:41;;;;;;;5.73;2.70;;;2.30;99.90;;;3.01;100.00;98235.81;4989287;28;20468;-75
2024/03/06 00:36:10;;;;;;;3.47;2.10;;;2.30;99.90;;;2.98;100.00;98246.41;4988940;28;20464;-75
2024/03/06 00:38:39;;;;;;;7.95;2.58;;;2.20;99.90;;;2.95;100.00;98241.53;4989005;28;20991;-76
2024/03/06 00:41:08;;;;;;;7.15;2.70;;;2.20;99.90;;;3.11;100.00;98243.56;4990865;28;20211;-76
2024/03/06 00:43:36;;;;;;;5.83;2.80;;;2.40;99.90;;;3.06;100.00;98249.13;4987119;28;20200;-76
2024/03/06 00:46:05;;;;;;;4.80;2.63;;;2.30;99.90;;;3.11;100.00;98253.88;4988905;28;20539;-76
2024/03/06 00:48:33;;;;;;;8.35;3.63;;;2.40;99.90;;;3.06;100.00;98256.88;4987839;28;20447;-76
2024/03/06 00:51:03;;;;;;;4.25;3.30;;;2.30;99.90;;;3.01;100.00;98259.88;4988007;28;20221;-76
2024/03/06 00:53:32;;;;;;;7.97;2.73;;;2.30;99.90;;;3.01;100.00;98259.06;4990873;28;20208;-75
2024/03/06 00:56:02;;;;;;;8.50;4.00;;;2.40;99.90;;;3.14;100.00;98258.78;4989548;28;20887;-76
2024/03/06 00:58:30;;;;;;;10.50;3.00;;;2.40;99.90;;;3.15;100.00;98261.25;4989010;28;20503;-75
2024/03/06 01:00:59;;;;;;;6.65;2.35;;;2.40;99.90;;;3.16;100.00;98259.47;4989417;28;20989;-75
2024/03/06 01:03:27;;;;;;;6.10;2.28;;;2.40;99.90;;;3.15;100.00;98256.06;4988720;28;20209;-76
2024/03/06 01:05:56;;;;;;;6.03;2.87;;;2.40;99.90;;;3.16;100.00;98256.91;4986863;28;20215;-75
2024/03/06 01:08:24;;;;;;;3.58;2.80;;;2.50;99.90;;;3.21;100.00;98252.94;4989100;28;20478;-75
2024/03/06 01:10:53;;;;;;;12.07;2.67;;;2.50;99.90;;;3.18;100.00;98250.63;4987108;28;20213;-76
2024/03/06 01:13:23;;;;;;;2.57;2.27;;;2.50;99.90;;;3.23;100.00;98248.44;4988313;28;20467;-76
2024/03/06 01:15:51;;;;;;;5.83;2.97;;;2.50;99.90;;;3.15;100.00;98255.25;4988458;28;20466;-76
2024/03/06 01:18:20;;;;;;;7.47;2.80;;;2.40;99.90;;;3.01;100.00;98248.72;4987280;28;20907;-75
2024/03/06 01:20:48;;;;;;;5.35;2.88;;;2.30;99.90;;;3.13;100.00;98252.78;4986373;28;20468;-76
2024/03/06 01:23:17;;;;;;;6.07;2.50;;;2.40;99.90;;;3.14;100.00;98238.94;4987938;28;20698;-75
2024/03/06 01:25:45;;;;;;;6.97;2.53;;;2.40;99.90;;;3.20;100.00;98243.56;4986684;28;20774;-76
2024/03/06 01:28:14;;;;;;;5.57;2.70;;;2.50;99.90;;;3.20;100.00;98251.31;4987908;28;20474;-76
2024/03/06 01:30:44;;;;;;;4.47;2.80;;;2.50;99.90;;;3.23;100.00;98253.59;4987571;28;20213;-76
2024/03/06 01:33:13;;;;;;;2.63;1.90;;;2.60;99.90;;;3.27;100.00;98261.91;4986998;28;20507;-75
2024/03/06 01:35:41;;;;;;;6.30;2.00;;;2.60;99.90;;;3.12;100.00;98260.69;4988815;28;20464;-76
2024/03/06 01:38:10;;;;;;;4.60;2.10;;;2.30;99.90;;;2.97;100.00;98257.69;4987696;28;20519;-76
2024/03/06 01:40:43;;;;;;;3.67;1.80;;;2.20;99.90;;;3.01;100.00;98246.13;4988316;28;20567;-75
2024/03/06 01:43:22;;;;;;;3.30;1.80;;;2.30;99.90;;;2.99;100.00;98243.69;4989946;28;20470;-76
2024/03/06 01:45:53;;;;;;;3.07;2.30;;;2.30;99.90;;;2.96;100.00;98230.22;4987330;28;20456;-76
2024/03/06 01:48:29;;;;;;;7.90;2.13;;;2.40;99.90;;;2.89;100.00;98234.28;4987411;28;20462;-76
2024/03/06 01:51:04;;;;;;;4.67;2.00;;;2.20;99.90;;;2.87;100.00;98231.84;4989522;28;20463;-76
2024/03/06 01:53:35;;;;;;;3.73;2.00;;;2.20;99.90;;;2.88;100.00;98235.25;4987701;28;20462;-75
2024/03/06 01:56:05;;;;;;;2.97;2.10;;;2.20;99.90;;;2.96;100.00;98236.19;4987463;28;20466;-75
2024/03/06 01:58:34;;;;;;;4.20;2.03;;;2.30;99.90;;;2.92;100.00;98239.19;4987127;28;21003;-76
2024/03/06 02:01:05;;;;;;;4.22;2.17;;;2.30;99.90;;;2.95;100.00;98233.78;4987442;28;21172;-76
2024/03/06 02:03:35;;;;;;;2.33;1.83;;;2.20;99.90;;;2.99;100.00;98237.69;4987457;28;22147;-76
2024/03/06 02:06:06;;;;;;;3.37;2.20;;;2.30;99.90;;;2.95;100.00;98238.94;4986609;28;20456;-76
2024/03/06 02:08:34;;;;;;;3.75;2.40;;;2.20;99.90;;;2.89;100.00;98244.63;4986973;28;20484;-76
2024/03/06 02:11:03;;;;;;;2.93;1.90;;;2.20;99.90;;;2.80;100.00;98253.16;4987565;28;20676;-76
2024/03/06 02:13:32;;;;;;;2.43;1.93;;;2.00;99.90;;;2.68;100.00;98249.88;4986836;28;20530;-76
2024/03/06 02:16:00;;;;;;;3.23;1.83;;;1.90;99.90;;;2.73;100.00;98254.66;4986639;28;20475;-77
2024/03/06 02:18:31;;;;;;;2.65;1.95;;;2.00;99.90;;;2.81;100.00;98252.22;4986384;28;20505;-76
2024/03/06 02:21:01;;;;;;;3.55;2.20;;;2.10;99.90;;;2.83;100.00;98251.13;4986911;28;20207;-76
2024/03/06 02:23:29;;;;;;;2.30;1.90;;;2.10;99.90;;;2.83;100.00;98255.47;4988472;28;20205;-76
2024/03/06 02:25:57;;;;;;;5.10;1.80;;;2.10;99.90;;;2.88;100.00;98263.66;4987607;28;21000;-76
2024/03/06 02:28:26;;;;;;;3.90;2.17;;;2.20;99.90;;;2.88;100.00;98264.44;4991589;28;20479;-76
2024/03/06 02:30:54;;;;;;;2.80;2.07;;;2.20;99.90;;;2.84;100.00;98268.28;4992490;28;20867;-76
2024/03/06 02:33:23;;;;;;;2.97;1.70;;;2.20;99.90;;;2.74;100.00;98262.25;4989865;28;20475;-75
2024/03/06 02:35:51;;;;;;;1.75;1.65;;;2.00;99.90;;;2.74;100.00;98262.25;4991895;28;20493;-75
2024/03/06 02:38:21;;;;;;;2.93;1.70;;;2.10;99.90;;;2.70;100.00;98265.25;4990897;28;20647;-75
2024/03/06 02:40:49;;;;;;;4.83;1.90;;;2.00;99.90;;;2.83;100.00;98260.66;4992790;28;20894;-75
2024/03/06 02:43:18;;;;;;;3.63;2.10;;;2.10;99.90;;;2.81;100.00;98262.56;4991390;28;20530;-75
2024/03/06 02:45:46;;;;;;;4.23;1.57;;;2.10;99.90;;;2.69;100.00;98263.59;4990729;28;20467;-75
2024/03/06 02:48:16;;;;;;;2.30;2.03;;;2.00;99.90;;;2.69;100.00;98258.44;4988525;28;20496;-75
2024/03/06 02:50:44;;;;;;;15.13;1.97;;;2.00;99.90;;;2.69;100.00;98263.59;4988273;28;21443;-75
2024/03/06 02:53:12;;;;;;;2.30;1.45;;;2.00;99.90;;;2.65;100.00;98267.41;4987385;28;21018;-76
2024/03/06 02:55:42;;;;;;;4.73;1.50;;;2.00;99.90;;;2.52;100.00;98265.06;4987034;28;20304;-75
2024/03/06 02:58:11;;;;;;;3.03;1.50;;;1.80;99.90;;;2.43;100.00;98264.06;4987510;28;20586;-75
2024/03/06 03:00:41;;;;;;;2.50;1.63;;;1.70;99.90;;;2.51;100.00;98256.50;4988139;28;21411;-76
2024/03/06 03:03:11;;;;;;;3.20;1.80;;;1.90;99.90;;;2.58;100.00;98256.78;4988392;28;20465;-76
2024/03/06 03:05:40;;;;;;;2.20;1.60;;;1.90;99.90;;;2.59;100.00;98257.59;4988574;28;20468;-76
2024/03/06 03:08:08;;;;;;;4.60;2.33;;;1.80;99.90;;;2.50;100.00;98257.44;4987729;28;20770;-75
2024/03/06 03:10:37;;;;;;;4.70;1.50;;;1.80;99.90;;;2.52;100.00;98260.72;4988632;28;20483;-76
2024/03/06 03:13:07;;;;;;;2.30;1.70;;;1.80;99.90;;;2.63;100.00;98258.97;4987874;28;20971;-76
2024/03/06 03:15:35;;;;;;;4.10;1.90;;;1.90;99.90;;;2.57;100.00;98259.50;4987669;28;20948;-76
2024/03/06 03:18:04;;;;;;;1.93;1.40;;;1.80;99.90;;;2.47;100.00;98265.44;4987324;28;21102;-75
2024/03/06 03:20:32;;;;;;;2.07;1.30;;;1.70;99.90;;;2.38;100.00;98266.25;4988290;28;20980;-76
2024/03/06 03:23:02;;;;;;;2.50;1.50;;;1.70;99.90;;;2.29;100.00;98272.16;4988694;28;20596;-76
2024/03/06 03:25:30;;;;;;;2.50;1.80;;;1.60;99.90;;;2.30;100.00;98272.97;4992818;28;20478;-75
2024/03/06 03:27:58;;;;;;;4.93;2.00;;;1.60;99.90;;;2.42;100.00;98267.63;4991633;28;20474;-76
2024/03/06 03:30:28;;;;;;;3.45;1.85;;;1.70;99.90;;;2.46;100.00;98268.97;4991505;28;20207;-75
2024/03/06 03:32:57;;;;;;;1.60;1.50;;;1.70;99.90;;;2.51;100.00;98277.13;4993310;28;20215;-76
2024/03/06 03:35:25;;;;;;;1.50;1.40;;;1.80;99.90;;;2.48;100.00;98272.25;4990943;28;20472;-76
2024/03/06 03:37:55;;;;;;;1.47;1.27;;;1.70;99.90;;;2.48;100.00;98267.09;4989955;28;20622;-76
2024/03/06 03:40:23;;;;;;;2.43;1.47;;;1.70;99.90;;;2.45;100.00;98262.19;4990319;28;20557;-76
2024/03/06 03:42:52;;;;;;;2.83;1.80;;;1.70;99.90;;;2.44;100.00;98265.72;4991009;28;20942;-76
2024/03/06 03:45:21;;;;;;;4.17;2.10;;;1.70;99.90;;;2.47;100.00;98272.38;4991577;28;20448;-76
2024/03/06 03:47:50;;;;;;;3.23;1.60;;;1.70;99.90;;;2.35;100.00;98266.50;4985686;28;20814;-75
2024/03/06 03:50:19;;;;;;;3.60;1.63;;;1.60;99.90;;;2.34;100.00;98269.19;4987700;28;20896;-75
2024/03/06 03:52:47;;;;;;;2.90;1.60;;;1.60;99.90;;;2.36;100.00;98268.13;4987591;28;20954;-76
2024/03/06 03:55:16;;;;;;;4.00;1.50;;;1.60;99.90;;;2.38;100.00;98276.56;4986604;28;20598;-75
2024/03/06 03:57:44;;;;;;;2.17;1.63;;;1.70;99.90;;;2.41;100.00;98278.88;4987765;28;20472;-76
2024/03/06 04:00:15;;;;;;;20.00;1.57;;;1.70;99.90;;;2.43;100.00;98274.38;4987368;28;20496;-76
2024/03/06 04:02:45;;;;;;;2.30;1.60;;;1.70;99.90;;;2.34;100.00;98282.09;4987393;28;20482;-76
2024/03/06 04:05:14;;;;;;;2.30;1.53;;;1.70;99.90;;;2.31;100.00;98282.34;4986540;28;20209;-75
2024/03/06 04:07:43;;;;;;;1.93;1.67;;;1.70;99.90;;;2.34;100.00;98279.53;4987549;28;20459;-76
2024/03/06 04:10:12;;;;;;;1.83;1.53;;;1.60;99.90;;;2.30;100.00;98291.84;4980564;28;20457;-80
2024/03/06 04:12:40;;;;;;;4.10;1.77;;;1.60;99.90;;;2.30;100.00;98278.97;4982573;28;20469;-79
2024/03/06 04:15:10;;;;;;;5.10;1.53;;;1.60;99.90;;;2.38;100.00;98281.72;4982295;28;20948;-75
2024/03/06 04:17:40;;;;;;;2.50;1.57;;;1.80;99.90;;;2.43;100.00;98283.91;4983220;28;21251;-74
2024/03/06 04:20:12;;;;;;;1.83;1.33;;;1.80;99.90;;;2.45;100.00;98276.84;4984635;28;20490;-75
2024/03/06 04:22:42;;;;;;;2.70;1.60;;;1.80;99.90;;;2.51;100.00;98282.31;4984936;28;20470;-75
2024/03/06 04:25:11;;;;;;;2.27;1.50;;;1.80;99.90;;;2.55;100.00;98288.03;4983762;28;20459;-74
2024/03/06 04:27:39;;;;;;;1.83;1.63;;;1.80;99.90;;;2.53;100.00;98290.72;4981410;28;20542;-76
2024/03/06 04:30:10;;;;;;;2.40;1.47;;;1.80;99.90;;;2.55;100.00;98293.19;4983138;28;20496;-76
2024/03/06 04:32:38;;;;;;;3.08;1.83;;;1.90;99.90;;;2.56;100.00;98291.41;4984244;28;20517;-76
2024/03/06 04:35:09;;;;;;;2.08;1.48;;;2.10;99.90;;;2.56;100.00;98301.75;4985566;28;20297;-76
2024/03/06 04:37:37;;;;;;;2.40;1.77;;;1.90;99.90;;;2.61;100.00;98302.16;4987811;28;20193;-75
2024/03/06 04:40:10;;;;;;;4.17;1.97;;;1.90;99.90;;;2.61;100.00;98307.31;4985883;28;20503;-75
2024/03/06 04:42:38;;;;;;;2.80;1.47;;;1.90;99.90;;;2.60;100.00;98306.53;4986990;28;20459;-76
2024/03/06 04:45:13;;;;;;;2.17;1.97;;;1.90;99.90;;;2.56;100.00;98305.16;4985133;28;20471;-75
2024/03/06 04:47:41;;;;;;;2.00;1.63;;;1.80;99.90;;;2.58;100.00;98307.59;4985322;28;20469;-76
2024/03/06 04:50:11;;;;;;;1.77;1.60;;;1.90;99.90;;;2.54;100.00;98318.16;4985281;28;20305;-76
2024/03/06 04:52:40;;;;;;;1.97;1.47;;;1.90;99.90;;;2.56;100.00;98314.66;4985897;28;20476;-75
2024/03/06 04:55:11;;;;;;;5.93;2.00;;;1.90;99.90;;;2.58;100.00;98321.31;4985664;28;20547;-75
2024/03/06 04:57:41;;;;;;;2.60;1.42;;;1.80;99.90;;;2.56;100.00;98319.81;4985623;28;20463;-76
2024/03/06 05:00:12;;;;;;;2.97;1.73;;;1.80;99.90;;;2.57;100.00;98326.63;4986129;28;20236;-76
2024/03/06 05:02:41;;;;;;;1.80;1.40;;;1.80;99.90;;;2.56;100.00;98330.13;4988109;28;20490;-81
2024/03/06 05:05:29;;;;;;;1.87;1.70;;;1.80;99.90;;;2.47;100.00;98327.38;4981945;28;20474;-79
2024/03/06 05:08:15;;;;;;;1.40;1.27;;;1.80;99.90;;;2.42;100.00;98337.28;4983278;28;20475;-76
2024/03/06 05:11:03;;;;;;;1.50;1.20;;;1.80;99.90;;;2.42;100.00;98339.03;4985424;28;20469;-75
2024/03/06 05:13:49;;;;;;;5.17;2.10;;;1.80;99.90;;;2.41;100.00;98343.38;4985368;28;20208;-76
2024/03/06 05:16:35;;;;;;;3.93;1.60;;;1.70;99.90;;;2.35;100.00;98343.91;4986438;28;20477;-75
2024/03/06 05:19:21;;;;;;;1.50;1.40;;;1.60;99.90;;;2.29;100.00;98349.53;4984276;28;20487;-76
2024/03/06 05:22:07;;;;;;;2.30;1.33;;;1.60;99.90;;;2.31;100.00;98360.56;4985067;28;20474;-76
2024/03/06 05:24:53;;;;;;;2.20;1.57;;;1.60;99.90;;;2.33;100.00;98356.09;4986288;28;20533;-76
2024/03/06 05:27:40;;;;;;;2.43;1.30;;;1.60;99.90;;;2.35;100.00;98351.63;4983139;28;20451;-75
2024/03/06 05:30:26;;;;;;;3.22;1.52;;;1.60;99.90;;;2.30;100.00;98358.94;4982116;28;21329;-79
2024/03/06 05:33:12;;;;;;;3.90;2.00;;;1.50;99.90;;;2.24;100.00;98356.03;4981510;28;20297;-76
2024/03/06 05:35:58;;;;;;;2.90;1.20;;;1.50;99.90;;;2.25;100.00;98365.44;4982654;28;20467;-75
2024/03/06 05:38:44;;;;;;;2.80;1.37;;;1.50;99.90;;;2.20;100.00;98368.38;4983602;28;20503;-76
2024/03/06 05:41:30;;;;;;;3.20;1.47;;;1.50;99.90;;;2.19;100.00;98374.47;4984569;28;20507;-75
2024/03/06 05:44:18;;;;;;;1.70;1.60;;;1.50;99.90;;;2.24;100.00;98387.00;4981320;28;20507;-75
2024/03/06 05:47:06;;;;;;;7.00;1.90;;;1.50;99.90;;;2.25;100.00;98374.00;4980810;28;20464;-77
2024/03/06 05:49:52;;;;;;;1.65;1.40;;;1.50;99.90;;;2.22;100.00;98384.53;4987222;28;20310;-76
2024/03/06 05:52:38;;;;;;;2.10;1.90;;;1.40;99.90;;;2.14;100.00;98386.13;4986691;28;20207;-76
2024/03/06 05:55:24;;;;;;;2.80;1.93;;;1.30;99.90;;;2.08;100.00;98392.63;4987520;28;20808;-76
2024/03/06 05:58:10;;;;;;;2.07;1.30;;;1.30;99.90;;;2.08;100.00;98395.19;4985827;28;20517;-76
2024/03/06 06:00:44;;;;;;;2.90;1.73;;;1.30;99.90;;;2.03;100.00;98397.31;4987186;28;20516;-76
2024/03/06 06:03:13;;;;;;;5.40;1.70;;;1.20;99.90;;;2.06;100.00;98399.63;4986419;28;20467;-76
2024/03/06 06:05:42;;;;;;;1.73;1.53;;;1.40;99.90;;;2.15;100.00;98400.66;4987789;28;20468;-76
2024/03/06 06:08:10;;;;;;;3.13;1.80;;;1.40;99.90;;;2.18;100.00;98408.97;4986711;28;20462;-77
2024/03/06 06:10:39;;;;;;;3.90;1.67;;;1.40;99.90;;;2.15;100.00;98403.25;4986490;28;20561;-76
2024/03/06 06:13:08;;;;;;;1.40;1.30;;;1.40;99.90;;;2.11;100.00;98413.00;4985683;28;20663;-76
2024/03/06 06:15:36;;;;;;;1.70;1.60;;;1.30;99.90;;;2.14;100.00;98417.91;4986251;28;20475;-76
2024/03/06 06:18:06;;;;;;;5.40;2.00;;;1.40;99.90;;;2.18;100.00;98419.28;4987896;28;20457;-76
2024/03/06 06:20:35;;;;;;;1.83;1.73;;;1.40;99.90;;;2.12;100.00;98419.75;4991107;28;21323;-76
2024/03/06 06:23:04;;;;;;;1.83;1.50;;;1.30;99.90;;;2.09;100.00;98424.34;4990405;28;20225;-76
2024/03/06 06:25:33;;;;;;;2.73;1.50;;;1.30;99.90;;;2.04;100.00;98417.00;4990229;28;20527;-76
2024/03/06 06:28:01;;;;;;;3.17;1.90;;;1.20;99.90;;;1.98;100.00;98414.91;4986101;28;20857;-76
2024/03/06 06:30:30;;;;;;;3.93;1.67;;;1.20;99.90;;;1.95;100.00;98413.41;4986733;28;20505;-76
2024/03/06 06:32:59;;;;;;;3.53;1.90;;;1.20;99.90;;;2.06;100.00;98412.53;4986947;28;20462;-77
2024/03/06 06:35:29;;;;;;;2.30;1.60;;;1.30;99.90;;;2.09;100.00;98420.00;4986502;28;20471;-76
2024/03/06 06:37:57;;;;;;;2.90;1.70;;;1.30;99.90;;;2.09;100.00;98432.09;4986821;28;20642;-76
2024/03/06 06:40:27;;;;;;;2.47;1.58;;;1.30;99.90;;;2.12;100.00;98424.91;4986824;28;20588;-76
2024/03/06 06:42:56;;;;;;;2.50;2.00;;;1.40;99.90;;;2.10;100.00;98426.00;4985408;28;20201;-76
2024/03/06 06:45:24;;;;;;;2.97;2.60;;;1.30;99.90;;;2.07;100.00;98429.66;4985668;28;20472;-76
2024/03/06 06:47:53;;;;;;;2.03;1.83;;;1.40;99.90;;;2.09;100.00;98434.66;4985158;28;20469;-76
2024/03/06 06:50:25;;;;;;;2.73;2.30;;;1.40;99.90;;;2.12;100.00;98435.25;4985032;28;20236;-76
2024/03/06 06:52:55;;;;;;;2.60;1.80;;;1.30;99.90;;;2.16;100.00;98441.78;4986519;28;20472;-76
2024/03/06 06:55:24;;;;;;;4.27;2.00;;;1.40;99.90;;;2.19;100.00;98435.56;4984957;28;20519;-77
2024/03/06 06:57:53;;;;;;;3.90;2.17;;;1.50;99.90;;;2.21;100.00;98441.44;4987386;28;20466;-76
2024/03/06 07:00:23;;;;;;;2.00;1.80;;;1.50;99.90;;;2.27;100.00;98444.31;4986329;28;20493;-76
2024/03/06 07:02:52;;;;;;;4.87;2.57;;;1.50;99.90;;;2.29;100.00;98451.94;4988317;28;20498;-76
2024/03/06 07:05:20;;;;;;;5.00;2.37;;;1.60;99.90;;;2.34;100.00;98450.63;4988429;28;20476;-76
2024/03/06 07:07:48;;;;;;;5.30;2.33;;;1.60;99.90;;;2.40;100.00;98452.69;4991282;28;20452;-76
2024/03/06 07:10:23;;;;;;;2.63;2.40;;;1.70;99.90;;;2.47;100.00;98458.16;4991745;28;20466;-76
2024/03/06 07:12:51;;;;;;;5.17;2.70;;;1.70;99.90;;;2.51;100.00;98460.38;4990669;28;20558;-76
2024/03/06 07:15:20;;;;;;;4.70;2.30;;;1.80;99.90;;;2.54;100.00;98467.84;4991611;28;20464;-76
2024/03/06 07:17:49;;;;;;;5.40;2.87;;;1.80;99.90;;;2.59;100.00;98464.09;4993571;28;20471;-76
2024/03/06 07:20:18;;;;;;;4.27;2.60;;;1.80;99.90;;;2.66;100.00;98467.78;4994775;28;20498;-75
2024/03/06 07:22:47;;;;;;;4.33;2.10;;;1.90;99.90;;;2.72;100.00;98475.03;4991308;28;21024;-76
2024/03/06 07:25:16;;;;;;;11.10;2.73;;;2.00;99.90;;;2.80;100.00;98467.47;4988055;28;20503;-76
2024/03/06 07:27:45;;;;;;;4.43;2.60;;;2.00;99.90;;;2.77;100.00;98467.72;4990183;28;20476;-76
2024/03/06 07:30:15;;;;;;;2.93;2.63;;;2.00;99.90;;;2.76;100.00;98471.25;4988841;28;20467;-76
2024/03/06 07:32:44;;;;;;;4.80;2.30;;;2.00;99.90;;;2.72;100.00;98475.84;4989350;28;20468;-76
2024/03/06 07:35:13;;;;;;;3.00;2.40;;;1.90;99.90;;;2.69;100.00;98473.53;4987784;28;20468;-76
2024/03/06 07:37:44;;;;;;;6.00;2.40;;;1.90;99.90;;;2.70;100.00;98480.34;4989349;28;20604;-76
2024/03/06 07:40:13;;;;;;;6.50;2.40;;;1.90;99.90;;;2.79;100.00;98483.91;4989694;28;20227;-76
2024/03/06 07:42:41;;;;;;;3.03;2.33;;;2.00;99.90;;;2.83;100.00;98480.94;4989029;28;20460;-76
2024/03/06 07:45:12;;;;;;;2.97;2.13;;;2.10;99.90;;;2.87;100.00;98479.75;4988771;28;20460;-76
2024/03/06 07:47:41;;;;;;;3.85;2.30;;;2.10;99.90;;;2.86;100.00;98480.69;4988371;28;20215;-76
2024/03/06 07:50:12;;;;;;;2.37;2.17;;;2.10;99.90;;;2.88;100.00;98478.78;4988251;28;20205;-76
2024/03/06 07:52:41;;;;;;;2.77;2.27;;;2.10;99.90;;;2.86;100.00;98477.28;4989550;28;20619;-76
2024/03/06 07:55:09;;;;;;;5.57;2.67;;;2.10;99.90;;;2.85;100.00;98486.78;4988770;28;20461;-76
2024/03/06 07:57:38;;;;;;;11.13;2.80;;;2.10;99.90;;;2.79;100.00;98478.72;4989710;28;20468;-76
2024/03/06 08:00:14;;;;;;;3.63;2.27;;;2.00;99.90;;;2.80;100.00;98493.28;4991772;28;20487;-78
2024/03/06 08:02:46;;;;;;;4.50;1.90;;;2.00;99.90;;;2.83;100.00;98488.69;4991390;28;20491;-76
2024/03/06 08:05:15;;;;;;;2.90;1.93;;;2.00;99.90;;;2.85;100.00;98483.38;4989986;28;20483;-76
2024/03/06 08:07:45;;;;;;;3.53;2.40;;;2.20;99.90;;;2.86;100.00;98482.44;4991059;28;20524;-76
2024/03/06 08:10:14;;;;;;;6.10;2.30;;;2.10;99.90;;;2.90;100.00;98489.81;4992271;28;20554;-76
2024/03/06 08:12:44;;;;;;;5.27;2.53;;;2.10;99.90;;;2.93;100.00;98484.38;4990185;28;20533;-76
2024/03/06 08:15:14;;;;;;;2.47;2.10;;;2.20;99.90;;;2.90;100.00;98489.81;4991543;28;21040;-76
2024/03/06 08:17:45;;;;;;;3.10;2.57;;;2.10;99.90;;;2.95;100.00;98489.44;4990980;28;20467;-76
2024/03/06 08:20:14;;;;;;;2.83;2.10;;;2.20;99.90;;;2.98;100.00;98490.00;4990588;28;20582;-76
2024/03/06 08:22:44;;;;;;;3.00;2.20;;;2.20;99.90;;;3.08;100.00;98494.38;4991475;28;20479;-76
2024/03/06 08:25:14;;;;;;;5.80;2.20;;;2.30;99.90;;;3.04;100.00;98499.00;4990253;28;20471;-77
2024/03/06 08:27:43;;;;;;;2.20;2.00;;;2.30;99.90;;;3.13;100.00;98505.13;4993066;28;20971;-76
2024/03/06 08:30:12;;;;;;;3.72;2.03;;;2.30;99.90;;;3.17;100.00;98503.94;4990192;28;20468;-77
2024/03/06 08:32:43;;;;;;;2.33;2.13;;;2.40;99.90;;;3.20;100.00;98504.50;4991757;28;20209;-76
2024/03/06 08:35:15;;;;;;;2.77;1.77;;;2.40;99.90;;;3.26;100.00;98500.59;4990107;28;20457;-77
2024/03/06 08:37:48;;;;;;;4.70;2.83;;;2.50;99.90;;;3.29;100.00;98505.50;4990474;28;21070;-76
2024/03/06 08:40:18;;;;;;;5.70;2.47;;;2.60;99.90;;;3.31;100.00;98507.00;4990140;28;20464;-77
2024/03/06 08:42:47;;;;;;;4.63;2.33;;;2.60;99.90;;;3.30;100.00;98512.28;4991303;28;20459;-76
2024/03/06 08:45:16;;;;;;;10.53;2.80;;;2.60;99.90;;;3.33;100.00;98506.88;4991529;28;20559;-77
2024/03/06 08:47:45;;;;;;;6.53;2.90;;;2.60;99.90;;;3.39;100.00;98512.34;4990493;28;20485;-75
2024/03/06 08:50:16;;;;;;;3.47;2.47;;;2.70;99.90;;;3.42;100.00;98509.50;4990254;28;20464;-77
2024/03/06 08:52:44;;;;;;;6.07;2.37;;;2.70;99.90;;;3.47;100.00;98509.91;4992205;28;20490;-76
2024/03/06 08:55:13;;;;;;;4.20;2.63;;;2.70;99.90;;;3.59;100.00;98508.03;4990332;28;20463;-77
2024/03/06 08:57:42;;;;;;;3.67;2.40;;;2.90;99.90;;;3.69;100.00;98508.06;4988483;28;20468;-76
2024/03/06 09:00:12;;;;;;;2.20;2.00;;;2.90;99.90;;;3.77;100.00;98500.47;4989850;28;20965;-76
2024/03/06 09:02:41;;;;;;;3.73;2.30;;;3.00;99.90;;;3.87;100.00;98501.31;4991635;28;20461;-76
2024/03/06 09:05:12;;;;;;;3.50;2.33;;;3.10;99.90;;;3.95;100.00;98496.28;4990773;28;20954;-77
2024/03/06 09:07:43;;;;;;;4.13;2.30;;;3.20;99.90;;;4.00;100.00;98501.88;4991404;28;20215;-76
2024/03/06 09:10:12;;;;;;;2.70;2.03;;;3.30;99.90;;;4.08;100.00;98502.00;4988606;28;20486;-76
2024/03/06 09:12:42;;;;;;;11.30;2.43;;;3.40;99.90;;;4.14;100.00;98498.88;4990041;28;20468;-76
2024/03/06 09:15:11;;;;;;;4.00;2.60;;;3.40;99.90;;;4.22;100.00;98490.44;4989858;28;20470;-77
2024/03/06 09:17:41;;;;;;;3.20;2.60;;;3.50;99.90;;;4.24;100.00;98494.53;4986990;28;20973;-76
2024/03/06 09:20:11;;;;;;;4.90;2.97;;;3.50;99.90;;;4.32;100.00;98492.09;4987199;28;20215;-76
2024/03/06 09:22:43;;;;;;;9.10;3.10;;;3.60;99.90;;;4.41;100.00;98493.84;4986657;28;20492;-77
2024/03/06 09:25:14;;;;;;;9.05;3.75;;;3.60;99.90;;;4.48;100.00;98497.50;4986813;28;20472;-77
2024/03/06 09:27:45;;;;;;;9.85;3.30;;;3.70;99.90;;;4.58;100.00;98497.53;4987908;28;20704;-77
2024/03/06 09:30:15;;;;;;;5.78;2.67;;;3.90;99.90;;;4.67;100.00;98503.63;4986396;28;20210;-77
2024/03/06 09:32:44;;;;;;;9.73;3.53;;;4.00;99.90;;;4.75;100.00;98499.41;4987382;28;20206;-77
2024/03/06 09:35:17;;;;;;;9.93;3.20;;;4.10;99.90;;;4.82;100.00;98500.50;4987244;28;20469;-76
2024/03/06 09:37:47;;;;;;;7.27;3.30;;;4.20;99.90;;;4.89;100.00;98503.34;4987507;28;20498;-76
2024/03/06 09:40:23;;;;;;;4.83;2.37;;;4.20;99.90;;;4.92;100.00;98505.63;4987449;28;20504;-77
2024/03/06 09:42:52;;;;;;;8.13;2.90;;;4.30;99.90;;;4.93;100.00;98505.47;4986544;28;20495;-76
2024/03/06 09:45:21;;;;;;;5.78;2.38;;;4.20;99.90;;;4.97;100.00;98511.19;4985604;28;20223;-76
2024/03/06 09:47:52;;;;;;;9.03;3.07;;;4.30;99.90;;;5.03;100.00;98508.06;4987147;28;20300;-76
2024/03/06 09:50:26;;;;;;;7.47;3.10;;;4.30;99.90;;;5.08;100.00;98500.66;4987227;28;20457;-77
2024/03/06 09:52:58;;;;;;;2.90;1.60;;;4.40;99.90;;;5.14;100.00;98507.88;4989503;28;20490;-76
2024/03/06 09:55:27;;;;;;;9.73;3.23;;;4.50;99.90;;;5.21;100.00;98510.72;4991750;28;20534;-77
2024/03/06 09:57:56;;;;;;;6.22;2.53;;;4.60;99.90;;;5.26;100.00;98501.56;4991358;28;20930;-77
2024/03/06 10:00:26;;;;;;;7.88;2.50;;;4.60;99.90;;;5.34;100.00;98503.47;4992763;28;20213;-77
2024/03/06 10:03:01;;;;;;;3.87;2.17;;;4.70;99.90;;;5.41;100.00;98512.31;4991301;28;20301;-76
2024/03/06 10:05:31;;;;;;;2.55;1.60;;;4.80;99.90;;;5.48;100.00;98510.78;4991128;28;20824;-77
2024/03/06 10:08:03;;;;;;;5.32;2.00;;;4.90;99.90;;;5.54;100.00;98505.81;4990414;28;20790;-76
2024/03/06 10:10:32;;;;;;;24.57;2.10;;;4.90;99.90;;;5.62;100.00;98504.28;4990551;28;20206;-77
2024/03/06 10:13:01;;;;;;;2.92;1.73;;;5.00;99.90;;;5.70;100.00;98505.19;4989423;28;20461;-77
2024/03/06 10:15:30;;;;;;;3.70;1.70;;;5.10;99.90;;;5.78;100.00;98504.47;4990133;28;20602;-77
2024/03/06 10:18:18;;;;;;;2.20;1.40;;;5.20;99.90;;;5.86;100.00;98508.00;4990131;28;20679;-76
2024/03/06 10:20:47;;;;;;;4.80;1.77;;;5.20;99.90;;;5.91;100.00;98510.16;4991182;28;20478;-78
2024/03/06 10:23:18;;;;;;;4.70;1.97;;;5.30;99.90;;;5.96;100.00;98510.53;4992246;28;20557;-77
2024/03/06 10:25:52;;;;;;;3.50;1.50;;;5.40;99.90;;;6.03;100.00;98514.19;4990886;28;20490;-77
2024/03/06 10:28:22;;;;;;;2.50;1.50;;;5.50;99.90;;;6.09;100.00;98516.19;4989959;28;21057;-77
2024/03/06 10:30:53;;;;;;;2.10;1.30;;;5.50;99.90;;;6.17;100.00;98518.88;4990874;28;20459;-78
2024/03/06 10:33:21;;;;;;;4.63;1.30;;;5.60;99.90;;;6.33;100.00;98524.19;4990461;28;20513;-78
2024/03/06 10:35:51;;;;;;;1.93;0.90;;;5.70;99.90;;;6.39;100.00;98521.00;4988942;28;20871;-76
2024/03/06 10:38:25;;;;;;;2.28;1.30;;;5.90;99.90;;;6.46;100.00;98527.25;4985731;28;20527;-76
2024/03/06 10:40:57;;;;;;;1.50;1.40;;;5.90;99.90;;;6.52;100.00;98521.47;4986445;28;20201;-76